Time;durP1;ratioP1;P1;durP2;ratioP2;P2;SDS_P1;SDS_P2;PMS_P1;PMS_P2;Temp;Humidity;BMP_temperature;BMP_pressure;BME280_temperature;BME280_humidity;BME280_pressure;Samples;Min_cycle;Max_cycle;Signal;HPM_P1;HPM_P2
2022/01/26 00:06:49;;;;;;;13.83;10.33;;;6.70;99.90;;;;;;4974667;28;20426;-48
2022/01/26 00:09:16;;;;;;;16.77;11.40;;;6.70;99.90;;;;;;4974123;28;20462;-48
2022/01/26 00:11:43;;;;;;;16.50;11.43;;;6.70;99.90;;;;;;4974281;28;20471;-48
2022/01/26 00:14:12;;;;;;;18.10;10.43;;;6.50;99.90;;;;;;4974306;28;20473;-48
2022/01/26 00:16:42;;;;;;;16.50;11.23;;;6.70;99.90;;;;;;4968355;28;20421;-49
2022/01/26 00:19:12;;;;;;;18.47;11.97;;;6.60;99.90;;;;;;4954696;29;20415;-48
2022/01/26 00:21:44;;;;;;;15.27;9.80;;;6.70;99.90;;;;;;4954964;29;20468;-48
2022/01/26 00:24:38;;;;;;;16.20;11.20;;;6.70;99.90;;;;;;4954990;29;20495;-47
2022/01/26 00:27:20;;;;;;;16.10;10.00;;;6.70;99.90;;;;;;4946478;29;20505;-47
2022/01/26 00:29:59;;;;;;;17.57;10.80;;;6.60;99.90;;;;;;4935212;29;20421;-49
2022/01/26 00:40:43;;;;;;;19.00;10.80;;;6.60;99.90;;;;;;4935080;29;20783;-49
2022/01/26 00:43:15;;;;;;;17.70;10.90;;;6.60;99.90;;;;;;4935434;29;20469;-47
2022/01/26 00:45:42;;;;;;;20.63;10.60;;;6.40;99.90;;;;;;4964499;28;20494;-48
2022/01/26 00:48:10;;;;;;;17.77;11.07;;;6.60;99.90;;;;;;4973664;28;20857;-47
2022/01/26 00:50:40;;;;;;;16.33;9.93;;;6.50;99.90;;;;;;4973265;28;20828;-47
2022/01/26 00:53:08;;;;;;;19.53;12.07;;;6.60;99.90;;;;;;4973812;28;20467;-48
2022/01/26 00:55:35;;;;;;;17.40;12.03;;;6.60;99.90;;;;;;4973674;28;20469;-48
2022/01/26 00:58:03;;;;;;;18.50;11.30;;;6.50;99.90;;;;;;4973612;28;20483;-47
2022/01/26 01:00:30;;;;;;;19.77;12.27;;;6.60;99.90;;;;;;4973204;28;20451;-47
2022/01/26 01:02:57;;;;;;;18.43;11.50;;;6.60;99.90;;;;;;4973573;28;20413;-48
2022/01/26 01:05:33;;;;;;;18.20;12.17;;;6.60;99.90;;;;;;4973460;28;20525;-49
2022/01/26 01:08:05;;;;;;;17.00;10.80;;;6.60;99.90;;;;;;4973627;28;20450;-48
2022/01/26 01:10:32;;;;;;;17.83;11.50;;;6.60;99.90;;;;;;4973080;28;20416;-46
2022/01/26 01:13:00;;;;;;;19.37;11.20;;;6.60;99.90;;;;;;4973290;28;20532;-47
2022/01/26 01:15:28;;;;;;;20.80;12.03;;;6.60;99.90;;;;;;4973050;28;20450;-48
2022/01/26 01:18:05;;;;;;;19.60;11.53;;;6.60;99.90;;;;;;4957000;28;20428;-49
2022/01/26 01:20:50;;;;;;;16.40;10.43;;;6.60;99.90;;;;;;4953622;29;20472;-48
2022/01/26 01:23:47;;;;;;;20.57;11.90;;;6.60;99.90;;;;;;4954266;29;20447;-47
2022/01/26 01:26:45;;;;;;;19.63;12.40;;;6.50;99.90;;;;;;4952417;29;20444;-48
2022/01/26 01:29:18;;;;;;;17.97;12.17;;;6.50;99.90;;;;;;4934166;29;20481;-48
2022/01/26 01:31:49;;;;;;;20.60;13.20;;;6.50;99.90;;;;;;4934562;29;20481;-49
2022/01/26 01:34:18;;;;;;;22.20;12.27;;;6.50;99.90;;;;;;4934584;29;20492;-48
2022/01/26 01:36:49;;;;;;;22.80;12.87;;;6.50;99.90;;;;;;4934463;29;20442;-50
2022/01/26 01:39:18;;;;;;;18.40;11.10;;;6.50;99.90;;;;;;4934335;29;20411;-48
2022/01/26 01:41:47;;;;;;;20.27;11.93;;;6.50;99.90;;;;;;4934556;29;20434;-48
2022/01/26 01:44:13;;;;;;;19.50;11.47;;;6.50;99.90;;;;;;4940275;28;20460;-48
2022/01/26 01:46:42;;;;;;;17.20;10.13;;;6.50;99.90;;;;;;4972931;28;20810;-47
2022/01/26 01:49:10;;;;;;;19.80;11.30;;;6.50;99.90;;;;;;4972579;28;20461;-48
2022/01/26 01:51:40;;;;;;;17.30;10.13;;;6.50;99.90;;;;;;4955314;28;20479;-48
2022/01/26 01:54:12;;;;;;;15.50;9.90;;;6.50;99.90;;;;;;4972868;28;20457;-48
2022/01/26 01:56:42;;;;;;;15.37;9.67;;;6.50;99.90;;;;;;4972921;28;20448;-48
2022/01/26 01:59:08;;;;;;;15.20;9.80;;;6.40;99.90;;;;;;4977265;28;20419;-48
2022/01/26 02:01:35;;;;;;;15.37;9.47;;;6.40;99.90;;;;;;4979328;28;20417;-48
2022/01/26 02:04:02;;;;;;;14.57;10.30;;;6.40;99.90;;;;;;4961753;28;20454;-50
2022/01/26 02:06:28;;;;;;;14.33;8.63;;;6.40;99.90;;;;;;4979749;28;20572;-49
2022/01/26 02:08:55;;;;;;;16.80;10.33;;;6.40;99.90;;;;;;4978973;28;20407;-48
2022/01/26 02:11:22;;;;;;;15.70;9.60;;;6.40;99.90;;;;;;4979165;28;20462;-49
2022/01/26 02:13:58;;;;;;;18.20;11.10;;;6.40;99.90;;;;;;4978923;28;20508;-50
2022/01/26 02:16:30;;;;;;;19.40;10.40;;;6.40;99.90;;;;;;4974728;28;20936;-49
2022/01/26 02:52:17;;;;;;;15.27;9.27;;;6.40;99.90;;;;;;4929794;29;20876;-49
2022/01/26 02:54:55;;;;;;;13.27;8.93;;;6.40;99.90;;;;;;4940288;29;21012;-48
2022/01/26 02:57:46;;;;;;;18.60;9.67;;;6.40;99.90;;;;;;4940387;29;20813;-48
2022/01/26 03:00:25;;;;;;;16.07;8.90;;;6.30;99.90;;;;;;4939790;29;20437;-50
2022/01/26 03:02:56;;;;;;;15.00;9.70;;;6.40;99.90;;;;;;4940212;29;20444;-49
2022/01/26 03:05:29;;;;;;;18.63;10.80;;;6.40;99.90;;;;;;4940254;29;20685;-48
2022/01/26 03:07:59;;;;;;;14.63;9.60;;;6.40;99.90;;;;;;4940259;29;20443;-49
2022/01/26 03:10:35;;;;;;;15.40;11.00;;;6.40;99.90;;;;;;4936257;29;20417;-49
2022/01/26 03:13:06;;;;;;;16.33;9.23;;;6.40;99.90;;;;;;4937003;29;20480;-48
2022/01/26 03:15:37;;;;;;;15.93;9.87;;;6.40;99.90;;;;;;4936963;29;21053;-49
2022/01/26 03:20:50;;;;;;;16.27;9.73;;;6.40;99.90;;;;;;4955980;29;20412;-49
2022/01/26 03:28:59;;;;;;;15.63;9.90;;;6.30;99.90;;;;;;4936527;29;20450;-48
2022/01/26 03:32:05;;;;;;;17.50;10.40;;;6.30;99.90;;;;;;4936672;29;20874;-49
2022/01/26 03:34:28;;;;;;;20.50;10.67;;;6.40;99.90;;;;;;4936586;29;20552;-48
2022/01/26 03:36:58;;;;;;;17.37;12.13;;;6.40;99.90;;;;;;4936656;29;20502;-49
2022/01/26 03:39:26;;;;;;;16.50;10.40;;;6.40;99.90;;;;;;4936589;29;20202;-48
2022/01/26 03:42:02;;;;;;;17.97;11.90;;;6.30;99.90;;;;;;4936949;29;20439;-48
2022/01/26 03:44:28;;;;;;;21.60;13.30;;;6.30;99.90;;;;;;4946461;28;20432;-50
2022/01/26 03:46:55;;;;;;;25.90;13.73;;;6.30;99.90;;;;;;4974905;28;20407;-49
2022/01/26 03:49:22;;;;;;;24.40;13.30;;;6.30;99.90;;;;;;4974602;28;20928;-48
2022/01/26 03:51:48;;;;;;;20.87;11.27;;;6.20;99.90;;;;;;4974762;28;20452;-48
2022/01/26 03:54:16;;;;;;;22.53;12.30;;;6.30;99.90;;;;;;4974743;28;20455;-49
2022/01/26 03:56:43;;;;;;;23.30;13.70;;;6.20;99.90;;;;;;4974673;28;20460;-48
2022/01/26 03:59:12;;;;;;;22.57;12.10;;;6.20;99.90;;;;;;4974417;28;20447;-48
2022/01/26 04:01:39;;;;;;;28.73;12.40;;;6.20;99.90;;;;;;4974658;28;20447;-49
2022/01/26 04:04:06;;;;;;;23.27;12.70;;;6.10;99.90;;;;;;4974738;28;20534;-48
2022/01/26 04:06:33;;;;;;;21.40;12.80;;;6.10;99.90;;;;;;4974681;28;20422;-50
2022/01/26 04:09:01;;;;;;;20.83;12.10;;;6.10;99.90;;;;;;4974146;28;20635;-48
2022/01/26 04:11:35;;;;;;;20.70;12.90;;;6.10;99.90;;;;;;4974630;28;20414;-47
2022/01/26 04:14:05;;;;;;;20.47;11.57;;;6.10;99.90;;;;;;4997434;23;20456;-46
2022/01/26 04:16:34;;;;;;;19.40;11.47;;;6.20;99.90;;;;;;4974353;28;20809;-46
2022/01/26 04:19:01;;;;;;;17.27;10.97;;;6.20;99.90;;;;;;4974200;28;20918;-46
2022/01/26 04:21:38;;;;;;;22.57;13.00;;;6.10;99.90;;;;;;4974304;28;20406;-47
2022/01/26 04:24:12;;;;;;;21.53;12.30;;;6.10;99.90;;;;;;4974605;28;20514;-47
2022/01/26 04:26:45;;;;;;;21.87;13.10;;;6.10;99.90;;;;;;4969737;28;20506;-46
2022/01/26 04:29:16;;;;;;;23.40;13.23;;;6.10;99.90;;;;;;4954816;29;20767;-46
2022/01/26 04:31:44;;;;;;;22.10;13.17;;;6.10;99.90;;;;;;4955234;29;20422;-47
2022/01/26 04:34:11;;;;;;;23.63;13.47;;;6.10;99.90;;;;;;4954730;28;20617;-46
2022/01/26 04:36:43;;;;;;;22.30;13.30;;;6.10;99.90;;;;;;4955149;29;20415;-46
2022/01/26 04:39:14;;;;;;;26.77;15.07;;;6.00;99.90;;;;;;4955251;29;20430;-45
2022/01/26 04:41:46;;;;;;;31.27;15.70;;;6.10;99.90;;;;;;4955489;29;20457;-45
2022/01/26 04:44:19;;;;;;;30.63;15.63;;;6.10;99.90;;;;;;4957719;28;20538;-46
2022/01/26 04:46:48;;;;;;;32.27;16.77;;;6.10;99.90;;;;;;4973940;28;20962;-45
2022/01/26 04:49:14;;;;;;;27.77;16.30;;;6.20;99.90;;;;;;4973826;28;20531;-46
2022/01/26 04:51:41;;;;;;;31.93;16.13;;;6.10;99.90;;;;;;4974339;28;20443;-47
2022/01/26 04:54:08;;;;;;;29.27;15.57;;;6.20;99.90;;;;;;4974370;28;20493;-46
2022/01/26 04:56:35;;;;;;;27.07;15.87;;;6.20;99.90;;;;;;4973944;28;20951;-46
2022/01/26 04:59:01;;;;;;;28.20;16.17;;;6.20;99.90;;;;;;4973468;28;20413;-46
2022/01/26 05:01:28;;;;;;;31.37;16.33;;;6.20;99.90;;;;;;4973810;28;20419;-46
2022/01/26 05:03:56;;;;;;;29.23;15.67;;;6.20;99.90;;;;;;4973708;28;20449;-47
2022/01/26 05:06:23;;;;;;;28.73;17.67;;;6.20;99.90;;;;;;4973797;28;20432;-46
2022/01/26 05:08:50;;;;;;;26.70;14.77;;;6.20;99.90;;;;;;4973231;28;20448;-46
2022/01/26 05:11:26;;;;;;;27.27;14.47;;;6.10;99.90;;;;;;4973585;28;20424;-46
2022/01/26 05:13:54;;;;;;;30.03;13.70;;;6.10;99.90;;;;;;4973083;28;20466;-48
2022/01/26 05:16:21;;;;;;;25.13;13.27;;;6.10;99.90;;;;;;4973537;28;20436;-45
2022/01/26 05:18:47;;;;;;;26.47;14.30;;;6.10;99.90;;;;;;4973417;28;20473;-46
2022/01/26 05:21:15;;;;;;;26.90;14.43;;;6.10;99.90;;;;;;4973463;28;20419;-46
2022/01/26 05:23:42;;;;;;;19.03;11.23;;;6.10;99.90;;;;;;4973509;28;21138;-47
2022/01/26 05:26:08;;;;;;;21.60;12.10;;;6.00;99.90;;;;;;4972348;28;20438;-46
2022/01/26 05:28:35;;;;;;;20.40;11.40;;;6.00;99.90;;;;;;4953956;28;20423;-46
2022/01/26 05:31:02;;;;;;;24.70;12.07;;;5.90;99.90;;;;;;4954162;29;20437;-48
2022/01/26 05:33:28;;;;;;;20.90;11.77;;;5.90;99.90;;;;;;4953244;28;20462;-45
2022/01/26 05:35:55;;;;;;;26.43;14.37;;;5.90;99.90;;;;;;4953994;29;20468;-46
2022/01/26 05:38:23;;;;;;;24.77;13.00;;;5.90;99.90;;;;;;4953924;29;20444;-47
2022/01/26 05:40:50;;;;;;;20.40;12.83;;;5.90;99.90;;;;;;4953858;29;20432;-46
2022/01/26 05:43:17;;;;;;;19.30;11.27;;;6.10;99.90;;;;;;4953862;29;20437;-46
2022/01/26 05:45:48;;;;;;;22.80;13.90;;;5.90;99.90;;;;;;4968593;28;20532;-46
2022/01/26 05:48:15;;;;;;;20.20;12.60;;;5.90;99.90;;;;;;4972951;28;20910;-47
2022/01/26 05:50:50;;;;;;;23.27;12.00;;;5.90;99.90;;;;;;4972613;28;20442;-47
2022/01/26 05:53:20;;;;;;;20.40;12.53;;;5.90;99.90;;;;;;4972649;28;20986;-47
2022/01/26 05:55:49;;;;;;;19.67;11.70;;;6.00;99.90;;;;;;4972823;28;20430;-47
2022/01/26 05:58:16;;;;;;;17.60;10.83;;;6.00;99.90;;;;;;4972893;28;20443;-47
2022/01/26 06:00:42;;;;;;;19.77;11.40;;;5.90;99.90;;;;;;4972542;28;20443;-46
2022/01/26 06:03:09;;;;;;;19.37;11.07;;;5.90;99.90;;;;;;4972590;28;20439;-46
2022/01/26 06:05:36;;;;;;;20.77;11.43;;;5.90;99.90;;;;;;4972950;28;20438;-47
2022/01/26 06:08:02;;;;;;;22.97;11.70;;;5.90;99.90;;;;;;4972659;28;20451;-46
2022/01/26 06:10:29;;;;;;;23.30;12.00;;;5.90;99.90;;;;;;4972231;28;20428;-46
2022/01/26 06:12:57;;;;;;;20.50;11.73;;;5.90;99.90;;;;;;4972680;28;20803;-46
2022/01/26 06:15:24;;;;;;;18.80;11.70;;;5.90;99.90;;;;;;4972760;28;20517;-47
2022/01/26 06:17:50;;;;;;;21.57;12.10;;;5.90;99.90;;;;;;4972513;28;20427;-48
2022/01/26 06:20:17;;;;;;;18.80;10.83;;;5.90;99.90;;;;;;4972291;28;20437;-47
2022/01/26 06:22:44;;;;;;;24.03;13.10;;;5.90;99.90;;;;;;4971912;28;20417;-47
2022/01/26 06:25:10;;;;;;;19.07;11.47;;;5.90;99.90;;;;;;4972591;28;20458;-47
2022/01/26 06:27:38;;;;;;;26.30;12.10;;;5.90;99.90;;;;;;4960264;28;20467;-46
2022/01/26 06:30:09;;;;;;;19.83;12.97;;;5.80;99.90;;;;;;4952992;29;20527;-46
2022/01/26 06:32:37;;;;;;;27.20;13.20;;;5.80;99.90;;;;;;4953020;29;20470;-47
2022/01/26 06:35:05;;;;;;;29.53;15.03;;;5.80;99.90;;;;;;4952840;29;20437;-47
2022/01/26 06:37:32;;;;;;;25.60;14.90;;;5.80;99.90;;;;;;4953145;29;20437;-47
2022/01/26 06:39:58;;;;;;;24.00;13.40;;;5.80;99.90;;;;;;4953202;29;20621;-47
2022/01/26 06:42:30;;;;;;;23.60;12.57;;;5.80;99.90;;;;;;4952944;29;20446;-47
2022/01/26 06:45:08;;;;;;;18.43;11.60;;;5.80;99.90;;;;;;4963681;28;20438;-48
2022/01/26 06:47:51;;;;;;;24.37;13.03;;;5.90;99.90;;;;;;4975957;28;20432;-48
2022/01/26 06:50:19;;;;;;;23.63;13.37;;;5.90;99.90;;;;;;4976008;28;20945;-48
2022/01/26 06:52:46;;;;;;;28.53;14.47;;;5.90;99.90;;;;;;4975689;28;20493;-47
2022/01/26 06:55:13;;;;;;;23.70;13.63;;;5.90;99.90;;;;;;4975750;28;20904;-46
2022/01/26 06:57:40;;;;;;;18.80;11.43;;;5.90;99.90;;;;;;4975497;28;20418;-46
2022/01/26 07:00:08;;;;;;;23.27;12.87;;;5.90;99.90;;;;;;4975391;28;20436;-46
2022/01/26 07:02:37;;;;;;;26.27;13.50;;;5.90;99.90;;;;;;4975588;28;20417;-46
2022/01/26 07:05:04;;;;;;;21.93;12.17;;;5.80;99.90;;;;;;4975405;28;20538;-47
2022/01/26 07:07:30;;;;;;;21.53;12.60;;;5.80;99.90;;;;;;4975371;28;20421;-47
2022/01/26 07:09:57;;;;;;;25.63;12.47;;;5.70;99.90;;;;;;4975142;28;20434;-46
2022/01/26 07:12:23;;;;;;;26.73;13.13;;;5.80;99.90;;;;;;4975355;28;20425;-46
2022/01/26 07:21:07;;;;;;;28.07;13.43;;;5.90;99.90;;;;;;4945070;28;20486;-47
2022/01/26 07:23:20;;;;;;;28.73;14.37;;;5.90;99.90;;;;;;4975545;28;20483;-48
2022/01/26 07:25:47;;;;;;;21.70;12.10;;;5.90;99.90;;;;;;4974918;28;20842;-47
2022/01/26 07:28:14;;;;;;;30.20;13.83;;;5.90;99.90;;;;;;4957849;28;20415;-48
2022/01/26 07:30:40;;;;;;;28.17;15.17;;;5.90;99.90;;;;;;4955786;29;20420;-48
2022/01/26 07:33:08;;;;;;;27.27;14.70;;;5.90;99.90;;;;;;4955539;29;20456;-47
2022/01/26 07:35:35;;;;;;;23.73;13.00;;;5.90;99.90;;;;;;4955429;29;20441;-46
2022/01/26 07:38:04;;;;;;;28.57;14.63;;;5.90;99.90;;;;;;4955380;29;20436;-47
2022/01/26 07:40:31;;;;;;;29.90;16.17;;;5.90;99.90;;;;;;4955243;29;20410;-47
2022/01/26 07:42:58;;;;;;;39.27;17.30;;;5.90;99.90;;;;;;4955423;29;20443;-47
2022/01/26 07:45:25;;;;;;;33.43;16.00;;;5.90;99.90;;;;;;4967725;28;20459;-48
2022/01/26 07:47:54;;;;;;;30.53;16.10;;;5.90;99.90;;;;;;4974396;28;20797;-46
2022/01/26 07:50:22;;;;;;;28.30;13.10;;;5.90;99.90;;;;;;4974878;28;20855;-47
2022/01/26 07:52:50;;;;;;;27.87;13.23;;;6.00;99.90;;;;;;4974820;28;20445;-47
2022/01/26 07:55:19;;;;;;;29.50;16.00;;;5.90;99.90;;;;;;4974482;28;20442;-47
2022/01/26 07:57:48;;;;;;;30.03;15.90;;;5.90;99.90;;;;;;4974827;28;20426;-48
2022/01/26 08:00:16;;;;;;;29.37;15.43;;;5.90;99.90;;;;;;4974479;28;20511;-48
2022/01/26 08:02:43;;;;;;;25.30;14.87;;;5.90;99.90;;;;;;4975049;28;20719;-47
2022/01/26 08:05:10;;;;;;;34.50;16.30;;;6.00;99.90;;;;;;4974724;28;20466;-47
2022/01/26 08:07:37;;;;;;;32.90;16.53;;;5.90;99.90;;;;;;4974861;28;20433;-47
2022/01/26 08:10:06;;;;;;;32.80;16.10;;;5.90;99.90;;;;;;4974501;28;20441;-47
2022/01/26 08:12:33;;;;;;;29.67;15.80;;;5.90;99.90;;;;;;4974344;28;20425;-47
2022/01/26 08:14:59;;;;;;;30.07;15.57;;;5.80;99.90;;;;;;4975228;28;21127;-47
2022/01/26 08:17:26;;;;;;;27.70;16.07;;;6.00;99.90;;;;;;4974648;28;20436;-48
2022/01/26 08:19:55;;;;;;;33.57;15.23;;;6.00;99.90;;;;;;4974855;28;20421;-47
2022/01/26 08:22:23;;;;;;;28.20;15.07;;;6.00;99.90;;;;;;4974385;28;20447;-47
2022/01/26 08:24:51;;;;;;;29.93;15.10;;;6.00;99.90;;;;;;4974519;28;20441;-47
2022/01/26 08:27:20;;;;;;;26.77;15.30;;;6.00;99.90;;;;;;4964547;28;20419;-48
2022/01/26 08:29:50;;;;;;;34.27;16.90;;;6.00;99.90;;;;;;4954994;28;20453;-47
2022/01/26 08:32:16;;;;;;;34.43;16.60;;;6.00;99.90;;;;;;4955032;28;20439;-48
2022/01/26 08:34:43;;;;;;;29.43;15.23;;;6.00;99.90;;;;;;4954633;29;20463;-47
2022/01/26 08:37:10;;;;;;;30.27;15.10;;;6.00;99.90;;;;;;4954999;29;20433;-47
2022/01/26 08:39:37;;;;;;;30.90;15.50;;;6.00;99.90;;;;;;4954478;28;20417;-47
2022/01/26 08:42:07;;;;;;;30.63;16.30;;;6.10;99.90;;;;;;4954304;29;20752;-47
2022/01/26 08:44:34;;;;;;;28.57;15.10;;;6.10;99.90;;;;;;4960151;28;20456;-47
2022/01/26 08:47:01;;;;;;;34.73;16.60;;;6.10;99.90;;;;;;4973650;28;20803;-46
2022/01/26 08:49:28;;;;;;;31.30;16.60;;;6.10;99.90;;;;;;4973428;28;20504;-47
2022/01/26 08:51:54;;;;;;;29.70;14.97;;;6.10;99.90;;;;;;4974319;28;20544;-46
2022/01/26 08:54:22;;;;;;;23.43;14.07;;;6.10;99.90;;;;;;4973478;28;20458;-47
2022/01/26 08:56:50;;;;;;;27.93;15.50;;;6.10;99.90;;;;;;4973951;28;20469;-46
2022/01/26 08:59:18;;;;;;;25.73;12.80;;;6.20;99.90;;;;;;4973503;28;20407;-47
2022/01/26 09:01:45;;;;;;;32.80;15.80;;;6.20;99.90;;;;;;4973508;28;20447;-47
2022/01/26 09:04:12;;;;;;;28.83;15.77;;;6.20;99.90;;;;;;4973661;28;20472;-47
2022/01/26 09:06:49;;;;;;;25.47;14.90;;;6.20;99.90;;;;;;4973921;28;20521;-47
2022/01/26 09:09:16;;;;;;;28.03;15.17;;;6.20;99.90;;;;;;4972354;28;20443;-47
2022/01/26 09:11:43;;;;;;;28.93;14.23;;;6.30;99.90;;;;;;4973882;28;20822;-47
2022/01/26 09:14:12;;;;;;;24.30;15.20;;;6.30;99.90;;;;;;4973425;28;20548;-47
2022/01/26 09:16:40;;;;;;;22.83;13.90;;;6.30;99.90;;;;;;4973507;28;20452;-47
2022/01/26 09:19:13;;;;;;;30.87;16.70;;;6.30;99.90;;;;;;4973118;28;20467;-48
2022/01/26 09:21:40;;;;;;;24.83;13.50;;;6.40;99.90;;;;;;4973226;28;20440;-47
2022/01/26 09:24:06;;;;;;;29.37;14.20;;;6.40;99.90;;;;;;4973381;28;20468;-48
2022/01/26 09:26:33;;;;;;;26.17;13.77;;;6.40;99.90;;;;;;4969535;28;20504;-47
2022/01/26 09:29:00;;;;;;;24.37;13.60;;;6.40;99.90;;;;;;4953274;29;20824;-47
2022/01/26 09:31:27;;;;;;;24.70;13.83;;;6.50;99.90;;;;;;4953587;29;20440;-47
2022/01/26 09:33:55;;;;;;;21.47;13.30;;;6.50;99.90;;;;;;4953532;29;20451;-47
2022/01/26 09:36:22;;;;;;;28.57;14.40;;;6.50;99.90;;;;;;4953616;29;20412;-47
2022/01/26 09:38:48;;;;;;;26.40;14.50;;;6.50;99.90;;;;;;4953847;29;20643;-46
2022/01/26 09:41:16;;;;;;;26.33;14.23;;;6.50;99.90;;;;;;4954380;29;20423;-46
2022/01/26 09:43:44;;;;;;;23.73;12.90;;;6.50;99.90;;;;;;4953987;29;20408;-47
2022/01/26 09:46:11;;;;;;;20.93;13.83;;;6.60;99.90;;;;;;4972248;28;20455;-47
2022/01/26 09:48:39;;;;;;;23.97;15.00;;;6.60;99.90;;;;;;4972220;28;20843;-47
2022/01/26 09:51:07;;;;;;;22.70;14.83;;;6.50;99.90;;;;;;4973168;28;20862;-47
2022/01/26 09:53:35;;;;;;;23.63;14.50;;;6.60;99.90;;;;;;4972503;28;20986;-49
2022/01/26 09:56:02;;;;;;;21.60;13.40;;;6.60;99.90;;;;;;4972729;28;20897;-47
2022/01/26 09:58:30;;;;;;;21.37;13.17;;;6.60;99.90;;;;;;4972804;28;20443;-46
2022/01/26 10:01:01;;;;;;;22.57;13.40;;;6.60;99.90;;;;;;4973230;28;20762;-46
2022/01/26 10:03:31;;;;;;;19.27;12.30;;;6.70;99.90;;;;;;4973309;28;20809;-46
2022/01/26 10:05:58;;;;;;;21.00;11.20;;;6.70;99.90;;;;;;4972869;28;21010;-48
2022/01/26 10:19:28;;;;;;;21.40;12.47;;;6.60;99.90;;;;;;4970299;28;20465;-50
2022/01/26 10:21:54;;;;;;;15.70;11.20;;;6.60;99.90;;;;;;4976052;28;20418;-50
2022/01/26 10:24:28;;;;;;;18.53;11.47;;;6.60;99.90;;;;;;4976161;28;20887;-50
2022/01/26 10:26:58;;;;;;;17.93;10.17;;;6.50;99.90;;;;;;4969255;28;20468;-50
2022/01/26 10:29:25;;;;;;;15.20;10.00;;;6.50;99.90;;;;;;4956438;29;20440;-50
2022/01/26 10:31:52;;;;;;;14.80;8.90;;;6.60;99.90;;;;;;4957259;29;20540;-50
2022/01/26 10:34:22;;;;;;;17.53;10.13;;;6.60;99.90;;;;;;4956688;29;20813;-51
2022/01/26 10:36:51;;;;;;;14.37;9.90;;;6.60;99.90;;;;;;4956466;29;20913;-51
2022/01/26 10:39:22;;;;;;;14.33;8.57;;;6.70;99.90;;;;;;4956854;29;20471;-51
2022/01/26 10:41:53;;;;;;;13.60;9.03;;;6.70;99.90;;;;;;4956413;29;20410;-51
2022/01/26 10:44:27;;;;;;;16.40;9.17;;;6.70;99.90;;;;;;4959870;28;20525;-51
2022/01/26 10:46:54;;;;;;;16.63;9.83;;;6.80;99.90;;;;;;4975826;28;20406;-51
2022/01/26 10:49:32;;;;;;;19.83;9.70;;;6.80;99.90;;;;;;4975588;28;20438;-50
2022/01/26 10:52:03;;;;;;;15.43;9.17;;;6.80;99.90;;;;;;4975037;28;20799;-50
2022/01/26 10:54:37;;;;;;;17.70;11.30;;;6.80;99.90;;;;;;4975455;28;20542;-49
2022/01/26 10:57:07;;;;;;;22.40;11.40;;;6.80;99.90;;;;;;4975184;28;20500;-50
2022/01/26 10:59:35;;;;;;;17.10;11.37;;;6.70;99.90;;;;;;4974991;28;20448;-51
2022/01/26 11:02:03;;;;;;;15.60;8.50;;;6.70;99.90;;;;;;4976050;28;20459;-50
2022/01/26 11:04:32;;;;;;;12.80;8.40;;;6.70;99.90;;;;;;4975779;28;20808;-51
2022/01/26 11:06:58;;;;;;;14.87;8.20;;;6.70;99.90;;;;;;4975616;28;20899;-51
2022/01/26 11:09:28;;;;;;;13.30;8.20;;;6.70;99.90;;;;;;4975209;28;20941;-51
2022/01/26 11:12:02;;;;;;;16.40;7.60;;;6.60;99.90;;;;;;4957737;28;20482;-51
2022/01/26 11:14:41;;;;;;;11.80;7.17;;;6.60;99.90;;;;;;4975146;28;20470;-50
2022/01/26 11:17:09;;;;;;;12.37;7.27;;;6.50;99.90;;;;;;4965213;28;20478;-51
2022/01/26 11:19:43;;;;;;;10.63;7.13;;;6.50;99.90;;;;;;4955625;29;20457;-49
2022/01/26 11:22:12;;;;;;;10.80;6.20;;;6.50;99.90;;;;;;4955744;29;20419;-50
2022/01/26 11:24:43;;;;;;;9.87;6.73;;;6.50;99.90;;;;;;4955675;29;20436;-49
2022/01/26 11:27:10;;;;;;;11.50;6.33;;;6.40;99.90;;;;;;4946921;28;20426;-52
2022/01/26 11:29:43;;;;;;;8.30;6.13;;;6.40;99.90;;;;;;4935924;29;20927;-50
2022/01/26 11:32:17;;;;;;;9.37;6.60;;;6.50;99.90;;;;;;4935520;29;20450;-50
2022/01/26 11:34:44;;;;;;;9.73;5.80;;;6.30;99.90;;;;;;4936569;29;21002;-50
2022/01/26 11:37:14;;;;;;;11.60;6.60;;;6.30;99.90;;;;;;4936183;29;20417;-50
2022/01/26 11:45:17;;;;;;;11.63;7.60;;;6.20;99.90;;;;;;4957768;28;20476;-50
2022/01/26 11:47:59;;;;;;;10.70;7.23;;;6.20;99.90;;;;;;4974561;28;20545;-51
2022/01/26 11:50:27;;;;;;;14.97;7.53;;;6.20;99.90;;;;;;4974850;28;20430;-51
2022/01/26 11:53:01;;;;;;;11.93;6.87;;;6.10;99.90;;;;;;4974885;28;20406;-50
2022/01/26 11:55:33;;;;;;;14.40;8.00;;;6.00;99.90;;;;;;4974350;28;20496;-51
2022/01/26 11:58:11;;;;;;;13.80;7.60;;;6.00;99.90;;;;;;4974908;28;20428;-50
2022/01/26 12:00:51;;;;;;;11.10;7.23;;;6.00;99.90;;;;;;4973721;28;20472;-51
2022/01/26 12:03:23;;;;;;;11.80;7.20;;;6.00;99.90;;;;;;4974966;28;20420;-51
2022/01/26 12:05:52;;;;;;;11.80;7.03;;;6.00;99.90;;;;;;4975065;28;20517;-51
2022/01/26 12:08:28;;;;;;;14.77;7.70;;;6.00;99.90;;;;;;4975177;28;20538;-51
2022/01/26 12:10:55;;;;;;;10.83;7.77;;;5.90;99.90;;;;;;4975218;28;20444;-50
2022/01/26 12:13:26;;;;;;;12.43;7.60;;;5.90;99.90;;;;;;4974405;28;20411;-51
2022/01/26 12:15:57;;;;;;;13.30;7.63;;;5.80;99.90;;;;;;4974014;28;20583;-51
2022/01/26 12:18:31;;;;;;;16.93;7.77;;;5.80;99.90;;;;;;4935061;29;20533;-51
2022/01/26 12:35:36;;;;;;;12.43;7.90;;;5.70;99.90;;;;;;4954060;29;20516;-50
2022/01/26 12:38:08;;;;;;;10.50;6.37;;;5.70;99.90;;;;;;4954342;29;20474;-50
2022/01/26 12:43:33;;;;;;;10.00;5.87;;;5.70;99.90;;;;;;4954419;28;20801;-50
2022/01/26 12:46:00;;;;;;;11.40;6.87;;;5.70;99.90;;;;;;4970353;28;21015;-51
2022/01/26 12:48:29;;;;;;;12.60;7.10;;;5.80;99.90;;;;;;4973239;28;20439;-49
2022/01/26 12:50:58;;;;;;;14.87;9.17;;;5.90;99.90;;;;;;4973560;28;20415;-52
2022/01/26 12:53:27;;;;;;;14.83;8.20;;;6.00;99.90;;;;;;4973555;28;20435;-51
2022/01/26 12:55:56;;;;;;;10.70;6.77;;;6.00;99.90;;;;;;4973223;28;20490;-51
2022/01/26 12:58:28;;;;;;;14.23;8.07;;;6.10;99.90;;;;;;4972817;28;20739;-50
2022/01/26 13:01:01;;;;;;;12.63;7.50;;;5.90;99.90;;;;;;4973183;28;20853;-51
2022/01/26 13:03:32;;;;;;;15.70;8.60;;;6.10;99.90;;;;;;4973186;28;20437;-51
2022/01/26 13:06:09;;;;;;;11.13;7.23;;;6.10;99.90;;;;;;4973074;28;20421;-51
2022/01/26 13:08:44;;;;;;;15.70;9.67;;;6.10;99.90;;;;;;4973575;28;20441;-49
2022/01/26 13:11:11;;;;;;;15.20;7.70;;;6.00;99.90;;;;;;4973294;28;20445;-50
2022/01/26 13:13:37;;;;;;;16.43;9.57;;;6.00;99.90;;;;;;4972889;28;20458;-49
2022/01/26 13:16:17;;;;;;;14.40;9.50;;;5.90;99.90;;;;;;4972627;28;20514;-50
2022/01/26 13:19:10;;;;;;;17.90;9.50;;;5.90;99.90;;;;;;4972846;28;20932;-50
2022/01/26 13:27:24;;;;;;;14.03;8.50;;;5.70;99.90;;;;;;4948275;28;20520;-52
2022/01/26 13:30:02;;;;;;;17.10;9.23;;;5.80;99.90;;;;;;4953173;29;20519;-52
2022/01/26 13:35:19;;;;;;;16.30;9.50;;;5.90;99.90;;;;;;4954208;29;20534;-51
2022/01/26 13:38:01;;;;;;;16.37;8.47;;;6.00;99.90;;;;;;4953669;29;20452;-50
2022/01/26 13:40:43;;;;;;;18.30;8.50;;;6.00;99.90;;;;;;4952824;29;20746;-50
2022/01/26 13:43:52;;;;;;;15.67;9.10;;;6.00;99.90;;;;;;4953312;29;20434;-52
2022/01/26 13:49:19;;;;;;;17.80;9.60;;;6.00;99.90;;;;;;4933742;29;20943;-51
2022/01/26 13:52:01;;;;;;;15.00;8.37;;;6.10;99.90;;;;;;4934586;29;20453;-50
2022/01/26 13:54:55;;;;;;;16.10;9.40;;;6.10;99.90;;;;;;4933855;29;20454;-50
2022/01/26 13:57:49;;;;;;;18.27;9.87;;;6.10;99.90;;;;;;4934282;29;20492;-51
2022/01/26 14:00:19;;;;;;;18.50;9.33;;;6.10;99.90;;;;;;4934154;29;20493;-51
2022/01/26 14:02:48;;;;;;;21.83;10.63;;;6.20;99.90;;;;;;4934018;29;20444;-51
2022/01/26 14:05:15;;;;;;;24.00;11.50;;;6.10;99.90;;;;;;4933893;29;20461;-51
2022/01/26 14:07:43;;;;;;;27.37;13.03;;;6.10;99.90;;;;;;4933865;29;20434;-51
2022/01/26 14:10:10;;;;;;;27.97;12.10;;;6.10;99.90;;;;;;4951367;29;20432;-51
2022/01/26 14:12:41;;;;;;;24.10;11.67;;;6.10;99.90;;;;;;4952617;29;20437;-51
2022/01/26 14:15:09;;;;;;;23.80;11.20;;;6.10;99.90;;;;;;4952420;29;20602;-51
2022/01/26 14:17:53;;;;;;;23.40;12.67;;;6.00;99.90;;;;;;4965655;28;20559;-51
2022/01/26 14:20:41;;;;;;;23.10;12.97;;;6.00;99.90;;;;;;4971284;28;20604;-51
2022/01/26 14:23:18;;;;;;;29.43;11.00;;;6.00;99.90;;;;;;4971703;28;20448;-51
2022/01/26 14:25:48;;;;;;;26.13;11.50;;;6.00;99.90;;;;;;4971608;28;20457;-51
2022/01/26 14:28:18;;;;;;;25.60;12.73;;;6.00;99.90;;;;;;4954438;28;20449;-51
2022/01/26 14:30:53;;;;;;;24.60;12.17;;;6.00;99.90;;;;;;4952338;29;20441;-51
2022/01/26 14:33:45;;;;;;;31.20;12.13;;;6.00;99.90;;;;;;4934907;29;20486;-50
2022/01/26 14:36:41;;;;;;;28.73;11.80;;;6.00;99.90;;;;;;4952346;29;20492;-51
2022/01/26 14:55:57;;;;;;;19.80;11.77;;;5.80;99.90;;;;;;4925037;28;21020;-51
2022/01/26 15:10:20;;;;;;;29.57;13.47;;;5.70;99.90;;;;;;4957550;28;20471;-50
2022/01/26 15:32:37;;;;;;;32.27;14.17;;;5.50;99.90;;;;;;4955116;29;20442;-50